createdAt,value
2023-03-03T00:01:26.305Z,31.67
2023-03-03T00:03:55.546Z,29.95
2023-03-03T00:06:25.561Z,30.70
2023-03-03T00:08:55.027Z,34.05
2023-03-03T00:13:54.695Z,29.85
2023-03-03T00:16:28.357Z,30.15
2023-03-03T00:18:55.806Z,28.65
2023-03-03T00:21:32.522Z,31.73
2023-03-03T00:24:16.060Z,29.58
2023-03-03T00:26:47.565Z,33.20
2023-03-03T00:29:28.805Z,32.13
2023-03-03T00:31:55.957Z,30.08
2023-03-03T00:34:28.205Z,28.95
2023-03-03T00:36:56.636Z,29.23
2023-03-03T00:39:32.247Z,34.10
2023-03-03T00:42:04.442Z,29.27
2023-03-03T00:44:43.821Z,30.83
2023-03-03T00:50:07.580Z,33.00
2023-03-03T00:52:39.911Z,30.73
2023-03-03T00:55:08.167Z,32.88
2023-03-03T00:57:37.754Z,34.45
2023-03-03T01:00:10.490Z,35.45
2023-03-03T01:02:37.444Z,31.30
2023-03-03T01:05:06.781Z,31.25
2023-03-03T01:07:36.062Z,31.52
2023-03-03T01:10:02.928Z,31.70
2023-03-03T01:12:29.815Z,30.30
2023-03-03T01:14:57.817Z,36.70
2023-03-03T01:17:24.696Z,29.83
2023-03-03T01:19:53.713Z,33.97
2023-03-03T01:22:20.583Z,35.63
2023-03-03T01:24:49.710Z,34.33
2023-03-03T01:27:17.621Z,31.95
2023-03-03T01:29:49.873Z,37.50
2023-03-03T01:32:16.760Z,35.08
2023-03-03T01:34:43.584Z,37.58
2023-03-03T01:37:12.460Z,42.10
2023-03-03T01:39:39.217Z,37.35
2023-03-03T01:42:06.145Z,31.35
2023-03-03T01:44:33.236Z,31.02
2023-03-03T01:47:21.805Z,34.83
2023-03-03T01:49:59.920Z,36.60
2023-03-03T01:52:32.714Z,34.45
2023-03-03T01:55:10.246Z,32.40
2023-03-03T01:57:44.311Z,37.92
2023-03-03T02:00:16.407Z,35.03
2023-03-03T02:02:45.015Z,34.78
2023-03-03T02:05:15.286Z,34.17
2023-03-03T02:07:44.191Z,33.08
2023-03-03T02:10:14.112Z,37.63
2023-03-03T02:12:53.800Z,36.33
2023-03-03T02:15:36.167Z,39.10
2023-03-03T02:18:09.691Z,39.00
2023-03-03T02:20:45.872Z,37.00
2023-03-03T02:23:31.447Z,35.83
2023-03-03T02:25:59.298Z,35.25
2023-03-03T02:28:34.539Z,34.05
2023-03-03T02:31:11.004Z,37.17
2023-03-03T02:33:42.253Z,34.38
2023-03-03T02:36:32.428Z,35.83
2023-03-03T02:39:27.236Z,39.33
2023-03-03T02:42:13.410Z,36.42
2023-03-03T02:44:44.695Z,39.42
2023-03-03T02:47:13.642Z,36.05
2023-03-03T02:49:40.487Z,37.55
2023-03-03T02:52:12.165Z,35.75
2023-03-03T02:54:41.620Z,33.28
2023-03-03T02:57:09.463Z,41.78
2023-03-03T02:59:38.341Z,32.47
2023-03-03T03:02:10.468Z,37.95
2023-03-03T03:04:37.382Z,38.28
2023-03-03T03:07:05.117Z,41.20
2023-03-03T03:09:34.349Z,40.40
2023-03-03T03:12:05.418Z,36.42
2023-03-03T03:14:39.690Z,30.60
2023-03-03T03:17:08.852Z,34.05
2023-03-03T03:19:35.772Z,34.78
2023-03-03T03:22:03.090Z,34.00
2023-03-03T03:24:36.022Z,32.97
2023-03-03T03:27:07.101Z,35.80
2023-03-03T03:29:36.107Z,34.17
2023-03-03T03:32:05.283Z,32.67
2023-03-03T03:34:32.376Z,33.17
2023-03-03T03:36:59.974Z,32.75
2023-03-03T03:39:28.379Z,29.75
2023-03-03T03:41:56.075Z,30.83
2023-03-03T03:44:24.410Z,34.47
2023-03-03T03:46:52.101Z,31.98
2023-03-03T03:49:20.936Z,30.52
2023-03-03T03:51:52.517Z,33.28
2023-03-03T03:54:22.956Z,32.22
2023-03-03T03:56:54.517Z,34.85
2023-03-03T03:59:24.389Z,32.70
2023-03-03T04:01:52.068Z,32.03
2023-03-03T04:04:20.711Z,30.65
2023-03-03T04:06:47.982Z,38.67
2023-03-03T04:09:15.283Z,32.92
2023-03-03T04:11:45.759Z,32.92
2023-03-03T04:14:13.756Z,35.13
2023-03-03T04:16:43.134Z,35.70
2023-03-03T04:19:12.602Z,32.80
2023-03-03T04:21:42.087Z,33.78
2023-03-03T04:24:09.074Z,36.75
2023-03-03T04:26:37.547Z,35.53
2023-03-03T04:29:10.988Z,36.20
2023-03-03T04:31:41.197Z,33.50
2023-03-03T04:34:09.758Z,42.85
2023-03-03T04:36:36.982Z,34.47
2023-03-03T04:41:37.929Z,38.00
2023-03-03T04:44:13.906Z,37.90
2023-03-03T04:47:05.610Z,39.83
2023-03-03T04:49:37.129Z,37.53
2023-03-03T04:52:10.411Z,36.22
2023-03-03T04:54:38.350Z,38.35
2023-03-03T04:57:13.438Z,38.47
2023-03-03T04:59:43.636Z,33.28
2023-03-03T05:02:16.991Z,38.45
2023-03-03T05:04:52.005Z,34.17
2023-03-03T05:07:28.992Z,33.67
2023-03-03T05:09:55.760Z,31.83
2023-03-03T05:12:32.629Z,33.05
2023-03-03T05:15:15.472Z,35.88
2023-03-03T05:17:55.442Z,36.78
2023-03-03T05:20:29.611Z,34.53
2023-03-03T05:23:01.737Z,34.28
2023-03-03T05:25:36.592Z,36.15
2023-03-03T05:28:06.972Z,36.25
2023-03-03T05:30:36.800Z,32.17
2023-03-03T05:33:06.897Z,35.58
2023-03-03T05:35:37.182Z,38.33
2023-03-03T05:38:09.663Z,38.72
2023-03-03T05:40:43.928Z,38.92
2023-03-03T05:43:16.075Z,35.13
2023-03-03T05:45:43.035Z,36.35
2023-03-03T05:48:10.445Z,32.63
2023-03-03T05:50:46.507Z,33.45
2023-03-03T05:53:22.449Z,37.15
2023-03-03T05:55:54.050Z,31.30
2023-03-03T06:00:54.442Z,29.80
2023-03-03T06:03:21.349Z,30.67
2023-03-03T06:05:56.891Z,32.58
2023-03-03T06:08:24.555Z,32.35
2023-03-03T06:10:56.218Z,31.27
2023-03-03T06:13:27.225Z,31.75
2023-03-03T06:15:57.034Z,35.73
2023-03-03T06:18:31.815Z,33.25
2023-03-03T06:21:03.614Z,34.45
2023-03-03T06:23:32.162Z,30.92
2023-03-03T06:26:04.964Z,30.90
2023-03-03T06:28:44.499Z,33.15
2023-03-03T06:31:14.056Z,35.50
2023-03-03T06:33:47.478Z,33.35
2023-03-03T06:36:23.534Z,36.43
2023-03-03T06:39:01.107Z,32.50
2023-03-03T06:41:33.647Z,31.52
2023-03-03T06:44:06.121Z,30.92
2023-03-03T06:46:36.843Z,30.02
2023-03-03T06:49:09.741Z,30.55
2023-03-03T06:51:46.621Z,26.88
2023-03-03T06:54:38.726Z,32.20
2023-03-03T06:57:37.994Z,34.72
2023-03-03T07:00:31.128Z,35.38
2023-03-03T07:03:04.825Z,31.55
2023-03-03T07:05:35.109Z,32.60
2023-03-03T07:08:15.239Z,35.22
2023-03-03T07:10:44.669Z,30.60
2023-03-03T07:16:04.020Z,29.15
2023-03-03T07:18:56.114Z,31.02
2023-03-03T07:21:41.592Z,31.95
2023-03-03T07:24:32.537Z,34.67
2023-03-03T07:27:31.068Z,29.88
2023-03-03T07:30:19.211Z,30.95
2023-03-03T07:33:02.644Z,29.48
2023-03-03T07:35:50.028Z,29.17
2023-03-03T07:38:27.158Z,27.70
2023-03-03T07:41:05.932Z,26.27
2023-03-03T07:43:58.897Z,29.77
2023-03-03T07:46:46.752Z,27.02
2023-03-03T07:49:37.109Z,28.15
2023-03-03T07:52:30.870Z,25.00
2023-03-03T07:55:25.688Z,27.90
2023-03-03T07:58:02.798Z,26.70
2023-03-03T08:00:35.815Z,28.13
2023-03-03T08:03:26.735Z,28.88
2023-03-03T08:05:59.395Z,29.92
2023-03-03T08:08:46.443Z,28.50
2023-03-03T08:11:18.512Z,32.95
2023-03-03T08:13:50.404Z,31.67
2023-03-03T08:16:44.692Z,33.88
2023-03-03T08:19:13.532Z,37.50
2023-03-03T08:21:42.583Z,36.88
2023-03-03T08:24:10.663Z,40.75
2023-03-03T08:26:38.507Z,37.00
2023-03-03T08:29:05.228Z,43.60
2023-03-03T08:31:41.161Z,39.95
2023-03-03T08:34:16.352Z,40.25
2023-03-03T08:36:43.577Z,39.35
2023-03-03T08:39:13.450Z,34.35
2023-03-03T08:41:48.626Z,37.83
2023-03-03T08:44:20.122Z,33.38
2023-03-03T08:46:51.862Z,32.17
2023-03-03T08:49:20.789Z,34.13
2023-03-03T08:51:48.608Z,37.83
2023-03-03T08:54:21.227Z,45.13
2023-03-03T08:56:48.003Z,37.80
2023-03-03T08:59:17.438Z,47.38
2023-03-03T09:04:20.598Z,38.13
2023-03-03T09:06:48.555Z,40.08
2023-03-03T09:09:17.946Z,56.30
2023-03-03T09:11:48.159Z,44.95
2023-03-03T09:14:17.577Z,38.13
2023-03-03T09:16:57.413Z,43.97
2023-03-03T09:19:30.863Z,45.85
2023-03-03T09:22:12.058Z,45.25
2023-03-03T09:24:39.009Z,49.03
2023-03-03T09:27:25.607Z,42.13
2023-03-03T09:29:57.789Z,45.42
2023-03-03T09:35:21.420Z,49.10
2023-03-03T09:37:50.598Z,30.50
2023-03-03T09:40:42.640Z,37.90
2023-03-03T09:43:14.302Z,27.55
2023-03-03T09:46:07.410Z,28.63
2023-03-03T09:48:49.052Z,23.63
2023-03-03T09:51:26.881Z,29.23
2023-03-03T09:54:08.002Z,23.80
2023-03-03T09:56:42.443Z,23.92
2023-03-03T09:59:40.288Z,15.23
2023-03-03T10:02:38.378Z,20.60
2023-03-03T10:05:20.187Z,23.15
2023-03-03T10:07:55.927Z,20.08
2023-03-03T10:10:45.274Z,25.65
2023-03-03T10:16:29.057Z,16.92
2023-03-03T10:19:03.187Z,15.85
2023-03-03T10:21:43.577Z,17.92
2023-03-03T10:24:35.015Z,20.33
2023-03-03T10:27:14.380Z,15.88
2023-03-03T10:29:59.390Z,18.13
2023-03-03T10:32:35.796Z,18.85
2023-03-03T10:35:12.029Z,14.25
2023-03-03T10:37:57.169Z,19.00
2023-03-03T10:40:47.403Z,17.75
2023-03-03T10:43:32.875Z,20.65
2023-03-03T10:46:20.139Z,14.15
2023-03-03T10:49:16.857Z,14.43
2023-03-03T10:52:02.549Z,14.27
2023-03-03T10:54:55.186Z,15.20
2023-03-03T10:57:42.165Z,14.38
2023-03-03T11:00:26.363Z,15.48
2023-03-03T11:03:11.905Z,15.48
2023-03-03T11:05:57.857Z,21.50
2023-03-03T11:08:30.407Z,15.57
2023-03-03T11:11:20.830Z,13.55
2023-03-03T11:13:50.026Z,17.02
2023-03-03T11:16:32.920Z,13.10
2023-03-03T11:19:32.486Z,16.45
2023-03-03T11:22:03.651Z,14.65
2023-03-03T11:24:51.565Z,18.23
2023-03-03T11:27:28.576Z,17.80
2023-03-03T11:30:08.316Z,11.13
2023-03-03T11:32:45.343Z,11.65
2023-03-03T11:35:23.160Z,14.25
2023-03-03T11:38:15.573Z,12.15
2023-03-03T11:40:49.061Z,13.50
2023-03-03T11:43:36.643Z,13.85
2023-03-03T11:46:10.337Z,11.85
2023-03-03T11:48:49.815Z,12.07
2023-03-03T11:51:43.605Z,9.32
2023-03-03T11:54:17.998Z,13.07
2023-03-03T11:56:46.645Z,11.90
2023-03-03T11:59:32.747Z,10.55
2023-03-03T12:02:28.611Z,8.75
2023-03-03T12:05:34.049Z,11.98
2023-03-03T12:08:28.963Z,17.58
2023-03-03T12:11:13.059Z,13.13
2023-03-03T12:13:54.746Z,8.55
2023-03-03T12:16:29.964Z,8.18
2023-03-03T12:19:20.445Z,11.75
2023-03-03T12:22:18.713Z,8.73
2023-03-03T12:25:13.199Z,8.95
2023-03-03T12:27:54.097Z,15.02
2023-03-03T12:30:26.906Z,10.95
2023-03-03T12:33:03.920Z,13.30
2023-03-03T12:35:36.878Z,9.57
2023-03-03T12:38:14.985Z,14.27
2023-03-03T12:40:52.176Z,9.35
2023-03-03T12:43:46.256Z,11.45
2023-03-03T12:46:16.034Z,12.68
2023-03-03T12:48:45.159Z,10.98
2023-03-03T12:51:31.629Z,9.30
2023-03-03T12:54:00.664Z,10.90
2023-03-03T12:57:29.226Z,16.83
2023-03-03T13:00:19.246Z,16.75
2023-03-03T13:03:03.736Z,13.18
2023-03-03T13:05:45.875Z,13.40
2023-03-03T13:08:43.118Z,14.48
2023-03-03T13:11:42.594Z,13.52
2023-03-03T13:14:26.246Z,13.55
2023-03-03T13:17:02.807Z,11.20
2023-03-03T13:19:38.462Z,8.23
2023-03-03T13:22:22.159Z,6.57
2023-03-03T13:24:58.008Z,8.23
2023-03-03T13:27:28.232Z,8.88
2023-03-03T13:30:26.658Z,9.02
2023-03-03T13:32:56.318Z,10.75
2023-03-03T13:35:29.293Z,9.40
2023-03-03T13:37:59.725Z,8.88
2023-03-03T13:40:31.008Z,12.95
2023-03-03T13:43:04.391Z,8.60
2023-03-03T13:45:57.593Z,12.57
2023-03-03T13:48:45.401Z,8.15
2023-03-03T13:51:35.149Z,6.50
2023-03-03T13:54:19.276Z,10.02
2023-03-03T13:57:10.781Z,12.27
2023-03-03T13:59:58.286Z,12.68
2023-03-03T14:02:43.979Z,14.50
2023-03-03T14:05:44.660Z,14.57
2023-03-03T14:08:29.965Z,15.38
2023-03-03T14:11:27.549Z,15.65
2023-03-03T14:14:18.138Z,13.35
2023-03-03T14:16:54.670Z,14.63
2023-03-03T14:19:27.546Z,15.88
2023-03-03T14:22:16.922Z,17.77
2023-03-03T14:25:09.773Z,13.85
2023-03-03T14:27:48.700Z,12.30
2023-03-03T14:30:36.282Z,15.15
2023-03-03T14:33:12.354Z,14.45
2023-03-03T14:35:40.345Z,16.20
2023-03-03T14:38:18.941Z,15.80
2023-03-03T14:40:58.301Z,15.30
2023-03-03T14:43:27.573Z,12.63
2023-03-03T14:45:58.870Z,17.63
2023-03-03T14:48:32.828Z,12.77
2023-03-03T14:51:15.604Z,15.65
2023-03-03T14:53:46.247Z,20.63
2023-03-03T14:56:23.568Z,14.60
2023-03-03T14:58:56.328Z,14.68
2023-03-03T15:01:40.977Z,14.00
2023-03-03T15:04:20.105Z,16.42
2023-03-03T15:06:51.553Z,16.75
2023-03-03T15:09:25.005Z,18.17
2023-03-03T15:11:53.680Z,13.23
2023-03-03T15:14:37.735Z,17.60
2023-03-03T15:17:37.088Z,16.45
2023-03-03T15:20:12.655Z,19.38
2023-03-03T15:22:55.702Z,20.75
2023-03-03T15:25:42.001Z,16.20
2023-03-03T15:28:40.333Z,16.00
2023-03-03T15:31:38.353Z,20.70
2023-03-03T15:34:32.417Z,15.15
2023-03-03T15:37:10.940Z,14.77
2023-03-03T15:39:43.618Z,15.55
2023-03-03T15:42:27.395Z,13.30
2023-03-03T15:45:26.901Z,16.40
2023-03-03T15:48:19.639Z,15.35
2023-03-03T15:51:11.187Z,17.98
2023-03-03T15:54:23.057Z,18.38
2023-03-03T15:57:18.771Z,14.95
2023-03-03T15:59:50.953Z,16.05
2023-03-03T16:02:25.727Z,18.55
2023-03-03T16:05:06.666Z,17.38
2023-03-03T16:07:54.866Z,20.38
2023-03-03T16:10:35.183Z,21.55
2023-03-03T16:13:33.779Z,14.57
2023-03-03T16:16:02.970Z,17.05
2023-03-03T16:19:07.863Z,17.73
2023-03-03T16:22:08.197Z,17.60
2023-03-03T16:24:59.894Z,28.40
2023-03-03T16:27:50.655Z,25.02
2023-03-03T16:30:23.649Z,19.48
2023-03-03T16:33:19.914Z,23.75
2023-03-03T16:35:56.304Z,21.17
2023-03-03T16:38:33.935Z,19.95
2023-03-03T16:41:08.853Z,25.40
2023-03-03T16:44:09.430Z,20.65
2023-03-03T16:46:45.184Z,25.17
2023-03-03T16:49:23.448Z,26.13
2023-03-03T16:51:58.498Z,27.27
2023-03-03T16:54:30.333Z,23.77
2023-03-03T16:57:21.337Z,27.40
2023-03-03T17:00:06.907Z,27.17
2023-03-03T17:02:55.296Z,24.95
2023-03-03T17:05:44.871Z,30.55
2023-03-03T17:08:20.821Z,32.40
2023-03-03T17:10:50.931Z,25.98
2023-03-03T17:13:19.899Z,25.48
2023-03-03T17:15:53.540Z,28.77
2023-03-03T17:18:45.258Z,25.77
2023-03-03T17:21:29.795Z,25.80
2023-03-03T17:24:15.499Z,27.10
2023-03-03T17:26:52.947Z,31.80
2023-03-03T17:29:38.587Z,29.42
2023-03-03T17:32:42.747Z,23.73
2023-03-03T17:35:42.057Z,30.83
2023-03-03T17:38:34.057Z,30.95
2023-03-03T17:41:32.849Z,27.27
2023-03-03T17:44:21.079Z,25.42
2023-03-03T17:46:49.434Z,26.25
2023-03-03T17:49:41.496Z,27.08
2023-03-03T17:52:28.873Z,29.77
2023-03-03T17:55:07.287Z,28.90
2023-03-03T17:57:52.804Z,29.10
2023-03-03T18:01:15.331Z,28.10
2023-03-03T18:03:51.517Z,27.13
2023-03-03T18:07:06.103Z,28.27
2023-03-03T18:10:03.865Z,33.30
2023-03-03T18:12:45.917Z,29.40
2023-03-03T18:15:37.578Z,34.38
2023-03-03T18:18:27.473Z,29.88
2023-03-03T18:21:02.807Z,37.58
2023-03-03T18:23:44.405Z,35.42
2023-03-03T18:26:38.690Z,32.72
2023-03-03T18:29:11.430Z,39.60
2023-03-03T18:32:03.737Z,33.40
2023-03-03T18:34:40.528Z,32.53
2023-03-03T18:37:29.176Z,36.92
2023-03-03T18:40:02.354Z,40.90
2023-03-03T18:42:43.431Z,35.90
2023-03-03T18:45:33.149Z,40.05
2023-03-03T18:48:13.877Z,37.40
2023-03-03T18:50:48.605Z,36.88
2023-03-03T18:53:15.566Z,44.33
2023-03-03T18:56:00.065Z,38.75
2023-03-03T18:58:27.569Z,42.75
2023-03-03T19:01:00.429Z,38.13
2023-03-03T19:04:14.142Z,39.33
2023-03-03T19:06:43.861Z,39.22
2023-03-03T19:09:23.026Z,43.55
2023-03-03T19:11:58.501Z,40.47
2023-03-03T19:14:29.691Z,43.28
2023-03-03T19:16:58.887Z,42.42
2023-03-03T19:19:37.898Z,40.35
2023-03-03T19:22:19.897Z,39.55
2023-03-03T19:25:08.231Z,40.22
2023-03-03T19:27:44.338Z,36.75
2023-03-03T19:30:36.932Z,41.55
2023-03-03T19:33:24.030Z,38.20
2023-03-03T19:36:19.976Z,36.83
2023-03-03T19:39:12.241Z,37.28
2023-03-03T19:42:04.804Z,37.35
2023-03-03T19:44:44.334Z,38.10
2023-03-03T19:47:34.315Z,35.95
2023-03-03T19:50:45.677Z,37.13
2023-03-03T19:53:18.094Z,32.85
2023-03-03T19:56:03.559Z,35.75
2023-03-03T19:58:55.983Z,38.22
2023-03-03T20:01:34.322Z,35.13
2023-03-03T20:04:04.173Z,36.58
2023-03-03T20:06:54.369Z,33.08
2023-03-03T20:09:41.049Z,29.00
2023-03-03T20:12:13.016Z,37.28
2023-03-03T20:14:46.316Z,32.17
2023-03-03T20:17:32.275Z,32.70
2023-03-03T20:20:27.424Z,29.63
2023-03-03T20:23:24.010Z,33.63
2023-03-03T20:25:57.842Z,34.75
2023-03-03T20:28:57.652Z,34.35
2023-03-03T20:31:33.501Z,36.92
2023-03-03T20:34:35.728Z,40.05
2023-03-03T20:37:13.857Z,40.50
2023-03-03T20:40:07.658Z,36.60
2023-03-03T20:43:08.894Z,36.33
2023-03-03T20:46:09.864Z,31.08
2023-03-03T20:48:46.949Z,35.00
2023-03-03T20:51:13.686Z,33.33
2023-03-03T20:53:49.375Z,33.05
2023-03-03T20:56:34.279Z,30.45
2023-03-03T20:59:28.562Z,33.00
2023-03-03T21:02:16.671Z,34.35
2023-03-03T21:04:43.621Z,32.45
2023-03-03T21:07:24.175Z,30.45
2023-03-03T21:09:51.064Z,30.25
2023-03-03T21:12:38.734Z,31.58
2023-03-03T21:15:22.600Z,30.67
2023-03-03T21:17:51.904Z,31.80
2023-03-03T21:20:29.105Z,33.78
2023-03-03T21:22:59.903Z,30.92
2023-03-03T21:25:44.129Z,32.88
2023-03-03T21:28:17.187Z,31.90
2023-03-03T21:31:06.706Z,32.88
2023-03-03T21:33:55.601Z,30.05
2023-03-03T21:36:25.558Z,29.90
2023-03-03T21:38:53.873Z,37.15
2023-03-03T21:41:23.060Z,30.83
2023-03-03T21:43:52.331Z,31.25
2023-03-03T21:46:27.245Z,30.08
2023-03-03T21:48:56.728Z,32.70
2023-03-03T21:51:24.965Z,32.13
2023-03-03T21:53:55.505Z,29.52
2023-03-03T21:56:22.230Z,35.85
2023-03-03T21:58:51.777Z,33.67
2023-03-03T22:03:45.366Z,32.55
2023-03-03T22:06:12.485Z,33.45
2023-03-03T22:08:39.320Z,27.27
2023-03-03T22:11:06.083Z,30.42
2023-03-03T22:13:32.908Z,31.35
2023-03-03T22:15:59.692Z,28.92
2023-03-03T22:18:26.489Z,32.17
2023-03-03T22:20:55.491Z,36.03
2023-03-03T22:23:22.443Z,29.77
2023-03-03T22:25:49.291Z,30.13
2023-03-03T22:28:18.372Z,33.42
2023-03-03T22:30:49.980Z,32.83
2023-03-03T22:33:16.778Z,38.67
2023-03-03T22:35:43.928Z,31.98
2023-03-03T22:40:44.817Z,30.85
2023-03-03T22:43:16.297Z,30.30
2023-03-03T22:45:45.400Z,30.73
2023-03-03T22:48:14.639Z,31.08
2023-03-03T22:50:45.581Z,33.15
2023-03-03T22:53:12.343Z,28.90
2023-03-03T22:55:39.171Z,34.45
2023-03-03T22:58:09.310Z,33.45
2023-03-03T23:00:38.532Z,32.25
2023-03-03T23:03:11.999Z,30.80
2023-03-03T23:05:39.026Z,34.83
2023-03-03T23:08:12.122Z,32.85
2023-03-03T23:10:39.016Z,31.73
2023-03-03T23:13:05.799Z,31.38
2023-03-03T23:15:33.214Z,31.63
2023-03-03T23:20:31.833Z,36.60
2023-03-03T23:22:59.092Z,34.00
2023-03-03T23:25:30.638Z,33.20
2023-03-03T23:27:57.953Z,26.70
2023-03-03T23:30:27.207Z,34.38
2023-03-03T23:32:54.265Z,31.13
2023-03-03T23:35:21.214Z,30.05
2023-03-03T23:37:50.844Z,29.55
2023-03-03T23:40:18.278Z,32.80
2023-03-03T23:42:45.207Z,29.65
2023-03-03T23:45:14.843Z,32.20
2023-03-03T23:47:41.997Z,28.17
2023-03-03T23:50:14.378Z,30.42
2023-03-03T23:52:44.362Z,30.27
2023-03-03T23:55:13.484Z,33.22
2023-03-03T23:57:40.299Z,27.13
